Grattan, Nebraska
Current Conditions -  °F | °C
As of 10:35 AM on Thursday 29 Jan 2015 (Local Time) from KONL Reporting Station
Overcast Overcast  
Wind Chill: 28°   Ceiling: 2800
Heat Index: 37°   Visibility: 10mi
Dew Point: 28°   Wind: 17mph
Humidity: 69%   Direction: 330°NNW
Pressure: 30.44"   Gusts: 25mph
Location:  42.6164°N, 98.6183°W
Report Text: KONL 291635Z AUTO 33015G22KT 10SM OVC028 03/M02 A3044 RMK AO2 T00301021
Loading
Personal Weather Stations






























Interactive Weather Map New forecast layout! Learn more

10-Day Weather Forecast

Advertisements
Track Severe Weather on mobile